sensor_id;sensor_type;location;lat;lon;timestamp;P1;durP1;ratioP1;P2;durP2;ratioP2
28459;SDS011;32528;45.712;9.192;2023-03-20T00:03:23;41.20;;;23.05;;
28459;SDS011;32528;45.712;9.192;2023-03-20T00:05:24;35.22;;;22.88;;
28459;SDS011;32528;45.712;9.192;2023-03-20T00:07:27;37.47;;;24.08;;
28459;SDS011;32528;45.712;9.192;2023-03-20T00:09:28;34.78;;;21.98;;
28459;SDS011;32528;45.712;9.192;2023-03-20T00:11:29;43.85;;;23.08;;
28459;SDS011;32528;45.712;9.192;2023-03-20T00:13:40;40.58;;;24.00;;
28459;SDS011;32528;45.712;9.192;2023-03-20T00:15:41;37.30;;;24.00;;
28459;SDS011;32528;45.712;9.192;2023-03-20T00:17:43;38.90;;;22.85;;
28459;SDS011;32528;45.712;9.192;2023-03-20T00:19:44;42.92;;;24.48;;
28459;SDS011;32528;45.712;9.192;2023-03-20T00:21:46;31.40;;;20.80;;
28459;SDS011;32528;45.712;9.192;2023-03-20T00:23:47;43.05;;;25.08;;
28459;SDS011;32528;45.712;9.192;2023-03-20T00:25:48;45.65;;;23.60;;
28459;SDS011;32528;45.712;9.192;2023-03-20T00:27:49;40.15;;;23.70;;
28459;SDS011;32528;45.712;9.192;2023-03-20T00:29:50;40.75;;;23.30;;
28459;SDS011;32528;45.712;9.192;2023-03-20T00:31:51;34.58;;;23.98;;
28459;SDS011;32528;45.712;9.192;2023-03-20T00:33:54;43.15;;;23.60;;
28459;SDS011;32528;45.712;9.192;2023-03-20T00:35:56;45.15;;;24.38;;
28459;SDS011;32528;45.712;9.192;2023-03-20T00:37:58;41.45;;;24.73;;
28459;SDS011;32528;45.712;9.192;2023-03-20T00:39:59;43.80;;;25.27;;
28459;SDS011;32528;45.712;9.192;2023-03-20T00:42:01;36.72;;;23.48;;
28459;SDS011;32528;45.712;9.192;2023-03-20T00:44:11;36.75;;;22.63;;
28459;SDS011;32528;45.712;9.192;2023-03-20T00:46:35;35.40;;;23.80;;
28459;SDS011;32528;45.712;9.192;2023-03-20T00:48:40;39.08;;;24.77;;
28459;SDS011;32528;45.712;9.192;2023-03-20T00:50:42;37.22;;;24.70;;
28459;SDS011;32528;45.712;9.192;2023-03-20T00:52:44;37.83;;;23.88;;
28459;SDS011;32528;45.712;9.192;2023-03-20T00:54:45;38.55;;;24.55;;
28459;SDS011;32528;45.712;9.192;2023-03-20T00:59:23;39.47;;;22.50;;
28459;SDS011;32528;45.712;9.192;2023-03-20T01:01:28;41.25;;;24.13;;
28459;SDS011;32528;45.712;9.192;2023-03-20T01:03:31;45.38;;;24.88;;
28459;SDS011;32528;45.712;9.192;2023-03-20T01:05:32;49.30;;;25.90;;
28459;SDS011;32528;45.712;9.192;2023-03-20T01:07:32;45.40;;;24.58;;
28459;SDS011;32528;45.712;9.192;2023-03-20T01:09:36;45.20;;;26.02;;
28459;SDS011;32528;45.712;9.192;2023-03-20T01:11:37;43.25;;;25.15;;
28459;SDS011;32528;45.712;9.192;2023-03-20T01:13:39;50.75;;;26.13;;
28459;SDS011;32528;45.712;9.192;2023-03-20T01:15:40;44.10;;;24.92;;
28459;SDS011;32528;45.712;9.192;2023-03-20T01:17:41;41.88;;;23.20;;
28459;SDS011;32528;45.712;9.192;2023-03-20T01:19:42;45.22;;;26.05;;
28459;SDS011;32528;45.712;9.192;2023-03-20T01:21:43;42.13;;;23.63;;
28459;SDS011;32528;45.712;9.192;2023-03-20T01:23:43;46.63;;;26.20;;
28459;SDS011;32528;45.712;9.192;2023-03-20T01:25:45;36.83;;;23.58;;
28459;SDS011;32528;45.712;9.192;2023-03-20T01:27:48;40.20;;;22.70;;
28459;SDS011;32528;45.712;9.192;2023-03-20T01:29:50;42.60;;;24.67;;
28459;SDS011;32528;45.712;9.192;2023-03-20T01:31:51;39.38;;;24.55;;
28459;SDS011;32528;45.712;9.192;2023-03-20T01:33:54;38.45;;;23.52;;
28459;SDS011;32528;45.712;9.192;2023-03-20T01:35:55;39.97;;;23.55;;
28459;SDS011;32528;45.712;9.192;2023-03-20T01:37:57;40.47;;;25.13;;
28459;SDS011;32528;45.712;9.192;2023-03-20T01:39:58;40.70;;;24.33;;
28459;SDS011;32528;45.712;9.192;2023-03-20T01:42:00;37.40;;;23.88;;
28459;SDS011;32528;45.712;9.192;2023-03-20T01:44:08;36.78;;;22.75;;
28459;SDS011;32528;45.712;9.192;2023-03-20T01:46:30;41.50;;;22.63;;
28459;SDS011;32528;45.712;9.192;2023-03-20T01:50:51;44.45;;;25.52;;
28459;SDS011;32528;45.712;9.192;2023-03-20T01:52:54;46.35;;;25.48;;
28459;SDS011;32528;45.712;9.192;2023-03-20T01:55:02;46.58;;;24.05;;
28459;SDS011;32528;45.712;9.192;2023-03-20T01:57:10;41.92;;;23.38;;
28459;SDS011;32528;45.712;9.192;2023-03-20T01:59:19;49.08;;;24.70;;
28459;SDS011;32528;45.712;9.192;2023-03-20T02:01:22;39.70;;;23.95;;
28459;SDS011;32528;45.712;9.192;2023-03-20T02:03:25;35.42;;;24.15;;
28459;SDS011;32528;45.712;9.192;2023-03-20T02:05:46;37.42;;;22.45;;
28459;SDS011;32528;45.712;9.192;2023-03-20T02:10:15;37.80;;;25.27;;
28459;SDS011;32528;45.712;9.192;2023-03-20T02:12:35;46.38;;;25.00;;
28459;SDS011;32528;45.712;9.192;2023-03-20T02:14:38;38.20;;;25.00;;
28459;SDS011;32528;45.712;9.192;2023-03-20T02:16:51;41.20;;;23.70;;
28459;SDS011;32528;45.712;9.192;2023-03-20T02:18:58;37.75;;;23.65;;
28459;SDS011;32528;45.712;9.192;2023-03-20T02:27:07;38.78;;;24.25;;
28459;SDS011;32528;45.712;9.192;2023-03-20T02:28:51;50.72;;;25.88;;
28459;SDS011;32528;45.712;9.192;2023-03-20T02:31:42;36.67;;;22.85;;
28459;SDS011;32528;45.712;9.192;2023-03-20T02:45:21;44.25;;;23.67;;
28459;SDS011;32528;45.712;9.192;2023-03-20T02:48:08;40.00;;;25.42;;
28459;SDS011;32528;45.712;9.192;2023-03-20T02:50:17;44.92;;;23.17;;
28459;SDS011;32528;45.712;9.192;2023-03-20T02:52:48;43.33;;;23.67;;
28459;SDS011;32528;45.712;9.192;2023-03-20T02:55:07;39.70;;;22.60;;
28459;SDS011;32528;45.712;9.192;2023-03-20T02:59:54;40.08;;;23.98;;
28459;SDS011;32528;45.712;9.192;2023-03-20T03:04:15;41.50;;;23.23;;
28459;SDS011;32528;45.712;9.192;2023-03-20T03:08:30;42.08;;;23.23;;
28459;SDS011;32528;45.712;9.192;2023-03-20T03:10:36;38.15;;;23.10;;
28459;SDS011;32528;45.712;9.192;2023-03-20T03:12:41;47.15;;;23.17;;
28459;SDS011;32528;45.712;9.192;2023-03-20T03:14:46;41.80;;;24.15;;
28459;SDS011;32528;45.712;9.192;2023-03-20T03:17:09;38.08;;;23.58;;
28459;SDS011;32528;45.712;9.192;2023-03-20T03:19:14;43.35;;;24.88;;
28459;SDS011;32528;45.712;9.192;2023-03-20T03:21:19;43.47;;;24.85;;
28459;SDS011;32528;45.712;9.192;2023-03-20T03:23:25;41.72;;;24.38;;
28459;SDS011;32528;45.712;9.192;2023-03-20T03:25:32;37.75;;;22.85;;
28459;SDS011;32528;45.712;9.192;2023-03-20T03:27:42;43.05;;;25.33;;
28459;SDS011;32528;45.712;9.192;2023-03-20T03:29:46;44.80;;;24.08;;
28459;SDS011;32528;45.712;9.192;2023-03-20T03:31:54;37.40;;;23.48;;
28459;SDS011;32528;45.712;9.192;2023-03-20T03:33:56;49.97;;;27.15;;
28459;SDS011;32528;45.712;9.192;2023-03-20T03:36:07;42.80;;;25.60;;
28459;SDS011;32528;45.712;9.192;2023-03-20T03:38:30;44.33;;;24.63;;
28459;SDS011;32528;45.712;9.192;2023-03-20T03:45:37;38.53;;;24.63;;
28459;SDS011;32528;45.712;9.192;2023-03-20T03:47:44;44.08;;;25.63;;
28459;SDS011;32528;45.712;9.192;2023-03-20T03:49:54;47.45;;;26.70;;
28459;SDS011;32528;45.712;9.192;2023-03-20T03:52:10;40.00;;;24.90;;
28459;SDS011;32528;45.712;9.192;2023-03-20T03:54:19;44.30;;;24.77;;
28459;SDS011;32528;45.712;9.192;2023-03-20T03:56:45;37.95;;;23.05;;
28459;SDS011;32528;45.712;9.192;2023-03-20T03:58:48;36.40;;;24.15;;
28459;SDS011;32528;45.712;9.192;2023-03-20T04:00:52;44.63;;;24.50;;
28459;SDS011;32528;45.712;9.192;2023-03-20T04:02:56;49.30;;;25.92;;
28459;SDS011;32528;45.712;9.192;2023-03-20T04:04:58;42.42;;;27.77;;
28459;SDS011;32528;45.712;9.192;2023-03-20T04:07:02;38.60;;;23.15;;
28459;SDS011;32528;45.712;9.192;2023-03-20T04:09:03;46.20;;;25.85;;
28459;SDS011;32528;45.712;9.192;2023-03-20T04:11:04;40.72;;;25.27;;
28459;SDS011;32528;45.712;9.192;2023-03-20T04:13:05;41.25;;;25.08;;
28459;SDS011;32528;45.712;9.192;2023-03-20T04:15:06;39.53;;;25.67;;
28459;SDS011;32528;45.712;9.192;2023-03-20T04:17:07;46.47;;;25.02;;
28459;SDS011;32528;45.712;9.192;2023-03-20T04:19:08;36.67;;;23.17;;
28459;SDS011;32528;45.712;9.192;2023-03-20T04:21:09;44.33;;;24.90;;
28459;SDS011;32528;45.712;9.192;2023-03-20T04:23:11;38.08;;;22.80;;
28459;SDS011;32528;45.712;9.192;2023-03-20T04:25:17;44.97;;;25.90;;
28459;SDS011;32528;45.712;9.192;2023-03-20T04:27:21;40.45;;;27.23;;
28459;SDS011;32528;45.712;9.192;2023-03-20T04:29:22;42.25;;;25.40;;
28459;SDS011;32528;45.712;9.192;2023-03-20T04:31:36;39.40;;;25.15;;
28459;SDS011;32528;45.712;9.192;2023-03-20T04:33:47;46.08;;;24.90;;
28459;SDS011;32528;45.712;9.192;2023-03-20T04:36:08;40.15;;;23.88;;
28459;SDS011;32528;45.712;9.192;2023-03-20T04:38:09;46.70;;;26.90;;
28459;SDS011;32528;45.712;9.192;2023-03-20T04:40:11;47.45;;;26.10;;
28459;SDS011;32528;45.712;9.192;2023-03-20T04:42:15;44.55;;;23.83;;
28459;SDS011;32528;45.712;9.192;2023-03-20T04:44:16;49.03;;;22.98;;
28459;SDS011;32528;45.712;9.192;2023-03-20T04:46:19;43.88;;;23.98;;
28459;SDS011;32528;45.712;9.192;2023-03-20T04:48:20;41.65;;;26.42;;
28459;SDS011;32528;45.712;9.192;2023-03-20T04:50:21;53.10;;;26.35;;
28459;SDS011;32528;45.712;9.192;2023-03-20T04:52:24;50.63;;;25.77;;
28459;SDS011;32528;45.712;9.192;2023-03-20T04:54:25;35.67;;;24.92;;
28459;SDS011;32528;45.712;9.192;2023-03-20T04:56:26;42.75;;;26.33;;
28459;SDS011;32528;45.712;9.192;2023-03-20T04:58:37;44.50;;;24.88;;
28459;SDS011;32528;45.712;9.192;2023-03-20T05:00:39;44.08;;;25.75;;
28459;SDS011;32528;45.712;9.192;2023-03-20T05:02:40;44.13;;;26.88;;
28459;SDS011;32528;45.712;9.192;2023-03-20T05:04:41;41.25;;;27.38;;
28459;SDS011;32528;45.712;9.192;2023-03-20T05:06:43;39.65;;;24.45;;
28459;SDS011;32528;45.712;9.192;2023-03-20T05:08:47;36.13;;;22.77;;
28459;SDS011;32528;45.712;9.192;2023-03-20T05:10:50;46.03;;;25.35;;
28459;SDS011;32528;45.712;9.192;2023-03-20T05:13:09;40.30;;;24.63;;
28459;SDS011;32528;45.712;9.192;2023-03-20T05:15:27;39.90;;;23.58;;
28459;SDS011;32528;45.712;9.192;2023-03-20T05:18:07;47.40;;;23.90;;
28459;SDS011;32528;45.712;9.192;2023-03-20T05:20:23;40.85;;;23.05;;
28459;SDS011;32528;45.712;9.192;2023-03-20T05:22:54;44.80;;;23.65;;
28459;SDS011;32528;45.712;9.192;2023-03-20T05:25:13;40.58;;;25.27;;
28459;SDS011;32528;45.712;9.192;2023-03-20T05:27:38;43.85;;;25.42;;
28459;SDS011;32528;45.712;9.192;2023-03-20T05:29:57;41.70;;;26.30;;
28459;SDS011;32528;45.712;9.192;2023-03-20T05:32:20;46.95;;;26.05;;
28459;SDS011;32528;45.712;9.192;2023-03-20T05:34:38;44.63;;;23.02;;
28459;SDS011;32528;45.712;9.192;2023-03-20T05:36:38;46.53;;;25.08;;
28459;SDS011;32528;45.712;9.192;2023-03-20T05:38:55;36.83;;;25.17;;
28459;SDS011;32528;45.712;9.192;2023-03-20T05:40:59;36.50;;;23.70;;
28459;SDS011;32528;45.712;9.192;2023-03-20T05:43:20;45.55;;;24.83;;
28459;SDS011;32528;45.712;9.192;2023-03-20T05:45:37;37.42;;;24.85;;
28459;SDS011;32528;45.712;9.192;2023-03-20T05:48:08;44.50;;;26.17;;
28459;SDS011;32528;45.712;9.192;2023-03-20T05:50:15;40.63;;;24.33;;
28459;SDS011;32528;45.712;9.192;2023-03-20T05:52:48;42.33;;;26.08;;
28459;SDS011;32528;45.712;9.192;2023-03-20T05:55:24;36.13;;;22.75;;
28459;SDS011;32528;45.712;9.192;2023-03-20T05:57:47;45.67;;;25.10;;
28459;SDS011;32528;45.712;9.192;2023-03-20T06:00:02;42.10;;;25.27;;
28459;SDS011;32528;45.712;9.192;2023-03-20T06:02:24;46.30;;;27.20;;
28459;SDS011;32528;45.712;9.192;2023-03-20T06:04:34;47.07;;;26.20;;
28459;SDS011;32528;45.712;9.192;2023-03-20T06:06:54;40.40;;;25.48;;
28459;SDS011;32528;45.712;9.192;2023-03-20T06:08:56;38.03;;;25.35;;
28459;SDS011;32528;45.712;9.192;2023-03-20T06:10:57;43.45;;;24.50;;
28459;SDS011;32528;45.712;9.192;2023-03-20T06:12:58;49.15;;;24.55;;
28459;SDS011;32528;45.712;9.192;2023-03-20T06:15:00;42.15;;;25.23;;
28459;SDS011;32528;45.712;9.192;2023-03-20T06:17:04;44.50;;;25.02;;
28459;SDS011;32528;45.712;9.192;2023-03-20T06:19:04;49.10;;;27.92;;
28459;SDS011;32528;45.712;9.192;2023-03-20T06:21:05;36.78;;;24.42;;
28459;SDS011;32528;45.712;9.192;2023-03-20T06:23:06;64.35;;;31.02;;
28459;SDS011;32528;45.712;9.192;2023-03-20T06:25:07;48.03;;;30.70;;
28459;SDS011;32528;45.712;9.192;2023-03-20T06:27:13;45.75;;;28.83;;
28459;SDS011;32528;45.712;9.192;2023-03-20T06:29:14;48.53;;;30.75;;
28459;SDS011;32528;45.712;9.192;2023-03-20T06:31:15;41.47;;;27.20;;
28459;SDS011;32528;45.712;9.192;2023-03-20T06:33:16;49.65;;;27.55;;
28459;SDS011;32528;45.712;9.192;2023-03-20T06:35:29;41.10;;;24.98;;
28459;SDS011;32528;45.712;9.192;2023-03-20T06:37:31;47.22;;;26.73;;
28459;SDS011;32528;45.712;9.192;2023-03-20T06:39:40;44.90;;;24.90;;
28459;SDS011;32528;45.712;9.192;2023-03-20T06:41:45;56.75;;;26.83;;
28459;SDS011;32528;45.712;9.192;2023-03-20T06:43:46;48.75;;;26.40;;
28459;SDS011;32528;45.712;9.192;2023-03-20T06:45:47;40.47;;;25.25;;
28459;SDS011;32528;45.712;9.192;2023-03-20T06:47:55;41.53;;;26.33;;
28459;SDS011;32528;45.712;9.192;2023-03-20T06:49:55;49.30;;;26.17;;
28459;SDS011;32528;45.712;9.192;2023-03-20T06:51:56;59.55;;;28.08;;
28459;SDS011;32528;45.712;9.192;2023-03-20T06:53:58;48.08;;;27.42;;
28459;SDS011;32528;45.712;9.192;2023-03-20T06:56:00;42.10;;;26.70;;
28459;SDS011;32528;45.712;9.192;2023-03-20T06:58:01;44.05;;;26.92;;
28459;SDS011;32528;45.712;9.192;2023-03-20T07:00:04;50.20;;;26.98;;
28459;SDS011;32528;45.712;9.192;2023-03-20T07:02:05;40.00;;;26.33;;
28459;SDS011;32528;45.712;9.192;2023-03-20T07:04:07;57.08;;;28.45;;
28459;SDS011;32528;45.712;9.192;2023-03-20T07:06:14;42.50;;;25.85;;
28459;SDS011;32528;45.712;9.192;2023-03-20T07:08:17;57.78;;;27.30;;
28459;SDS011;32528;45.712;9.192;2023-03-20T07:10:18;48.55;;;29.23;;
28459;SDS011;32528;45.712;9.192;2023-03-20T07:12:23;51.42;;;29.23;;
28459;SDS011;32528;45.712;9.192;2023-03-20T07:14:27;56.88;;;32.75;;
28459;SDS011;32528;45.712;9.192;2023-03-20T07:16:38;84.68;;;49.28;;
28459;SDS011;32528;45.712;9.192;2023-03-20T07:18:38;67.32;;;42.05;;
28459;SDS011;32528;45.712;9.192;2023-03-20T07:20:39;60.65;;;39.00;;
28459;SDS011;32528;45.712;9.192;2023-03-20T07:22:40;61.90;;;36.15;;
28459;SDS011;32528;45.712;9.192;2023-03-20T07:30:56;73.35;;;29.40;;
28459;SDS011;32528;45.712;9.192;2023-03-20T07:32:59;60.17;;;38.17;;
28459;SDS011;32528;45.712;9.192;2023-03-20T07:35:03;52.55;;;31.58;;
28459;SDS011;32528;45.712;9.192;2023-03-20T07:37:04;57.70;;;29.05;;
28459;SDS011;32528;45.712;9.192;2023-03-20T07:39:07;40.97;;;26.85;;
28459;SDS011;32528;45.712;9.192;2023-03-20T07:41:10;71.15;;;31.85;;
28459;SDS011;32528;45.712;9.192;2023-03-20T07:43:15;68.97;;;29.65;;
28459;SDS011;32528;45.712;9.192;2023-03-20T07:45:51;65.13;;;28.38;;
28459;SDS011;32528;45.712;9.192;2023-03-20T07:47:53;44.55;;;24.20;;
28459;SDS011;32528;45.712;9.192;2023-03-20T07:49:53;46.97;;;25.00;;
28459;SDS011;32528;45.712;9.192;2023-03-20T07:51:56;51.60;;;26.83;;
28459;SDS011;32528;45.712;9.192;2023-03-20T07:53:57;34.03;;;22.73;;
28459;SDS011;32528;45.712;9.192;2023-03-20T07:55:59;39.95;;;21.10;;
28459;SDS011;32528;45.712;9.192;2023-03-20T07:58:00;32.10;;;20.80;;
28459;SDS011;32528;45.712;9.192;2023-03-20T08:00:01;34.08;;;19.35;;
28459;SDS011;32528;45.712;9.192;2023-03-20T08:02:15;34.45;;;19.38;;
28459;SDS011;32528;45.712;9.192;2023-03-20T08:04:16;29.38;;;18.63;;
28459;SDS011;32528;45.712;9.192;2023-03-20T08:06:20;31.92;;;17.35;;
28459;SDS011;32528;45.712;9.192;2023-03-20T08:08:21;37.85;;;18.15;;
28459;SDS011;32528;45.712;9.192;2023-03-20T08:10:21;36.08;;;19.40;;
28459;SDS011;32528;45.712;9.192;2023-03-20T08:12:22;33.33;;;17.65;;
28459;SDS011;32528;45.712;9.192;2023-03-20T08:14:23;30.33;;;18.50;;
28459;SDS011;32528;45.712;9.192;2023-03-20T08:16:23;26.63;;;16.35;;
28459;SDS011;32528;45.712;9.192;2023-03-20T08:18:25;25.88;;;17.02;;
28459;SDS011;32528;45.712;9.192;2023-03-20T08:20:26;28.48;;;17.50;;
28459;SDS011;32528;45.712;9.192;2023-03-20T08:22:27;26.13;;;16.58;;
28459;SDS011;32528;45.712;9.192;2023-03-20T08:24:28;29.15;;;17.48;;
28459;SDS011;32528;45.712;9.192;2023-03-20T08:26:29;29.05;;;14.52;;
28459;SDS011;32528;45.712;9.192;2023-03-20T08:28:30;22.23;;;13.27;;
28459;SDS011;32528;45.712;9.192;2023-03-20T08:30:30;23.75;;;14.73;;
28459;SDS011;32528;45.712;9.192;2023-03-20T08:32:31;30.13;;;13.75;;
28459;SDS011;32528;45.712;9.192;2023-03-20T08:34:32;21.05;;;13.18;;
28459;SDS011;32528;45.712;9.192;2023-03-20T08:36:32;23.83;;;13.27;;
28459;SDS011;32528;45.712;9.192;2023-03-20T08:38:33;21.25;;;12.82;;
28459;SDS011;32528;45.712;9.192;2023-03-20T08:40:34;30.17;;;13.95;;
28459;SDS011;32528;45.712;9.192;2023-03-20T08:42:35;23.30;;;13.13;;
28459;SDS011;32528;45.712;9.192;2023-03-20T08:44:36;24.35;;;15.02;;
28459;SDS011;32528;45.712;9.192;2023-03-20T08:46:37;24.42;;;13.35;;
28459;SDS011;32528;45.712;9.192;2023-03-20T08:48:38;24.27;;;12.77;;
28459;SDS011;32528;45.712;9.192;2023-03-20T08:50:40;30.25;;;14.30;;
28459;SDS011;32528;45.712;9.192;2023-03-20T08:52:41;26.55;;;14.77;;
28459;SDS011;32528;45.712;9.192;2023-03-20T08:54:43;25.02;;;14.73;;
28459;SDS011;32528;45.712;9.192;2023-03-20T08:56:44;28.33;;;16.00;;
28459;SDS011;32528;45.712;9.192;2023-03-20T08:58:45;27.20;;;13.80;;
28459;SDS011;32528;45.712;9.192;2023-03-20T09:00:46;26.23;;;13.85;;
28459;SDS011;32528;45.712;9.192;2023-03-20T09:02:46;27.13;;;14.02;;
28459;SDS011;32528;45.712;9.192;2023-03-20T09:04:47;25.73;;;15.10;;
28459;SDS011;32528;45.712;9.192;2023-03-20T09:06:48;30.48;;;16.52;;
28459;SDS011;32528;45.712;9.192;2023-03-20T09:08:49;27.65;;;15.43;;
28459;SDS011;32528;45.712;9.192;2023-03-20T09:10:50;29.08;;;16.35;;
28459;SDS011;32528;45.712;9.192;2023-03-20T09:12:50;28.33;;;16.70;;
28459;SDS011;32528;45.712;9.192;2023-03-20T09:14:52;27.85;;;17.02;;
28459;SDS011;32528;45.712;9.192;2023-03-20T09:16:53;24.58;;;16.25;;
28459;SDS011;32528;45.712;9.192;2023-03-20T09:18:54;33.03;;;17.05;;
28459;SDS011;32528;45.712;9.192;2023-03-20T09:20:55;32.88;;;16.90;;
28459;SDS011;32528;45.712;9.192;2023-03-20T09:22:56;27.55;;;15.55;;
28459;SDS011;32528;45.712;9.192;2023-03-20T09:24:57;28.63;;;15.40;;
28459;SDS011;32528;45.712;9.192;2023-03-20T09:26:59;22.65;;;14.95;;
28459;SDS011;32528;45.712;9.192;2023-03-20T09:29:00;27.42;;;15.10;;
28459;SDS011;32528;45.712;9.192;2023-03-20T09:31:01;28.17;;;15.07;;
28459;SDS011;32528;45.712;9.192;2023-03-20T09:33:02;25.30;;;15.25;;
28459;SDS011;32528;45.712;9.192;2023-03-20T09:35:03;22.58;;;14.38;;
28459;SDS011;32528;45.712;9.192;2023-03-20T09:37:06;28.98;;;14.18;;
28459;SDS011;32528;45.712;9.192;2023-03-20T09:39:07;23.05;;;13.55;;
28459;SDS011;32528;45.712;9.192;2023-03-20T09:41:20;23.38;;;13.52;;
28459;SDS011;32528;45.712;9.192;2023-03-20T09:46:05;25.20;;;14.70;;
28459;SDS011;32528;45.712;9.192;2023-03-20T09:48:40;28.77;;;14.38;;
28459;SDS011;32528;45.712;9.192;2023-03-20T09:55:34;28.13;;;17.63;;
28459;SDS011;32528;45.712;9.192;2023-03-20T09:57:39;27.10;;;16.98;;
28459;SDS011;32528;45.712;9.192;2023-03-20T09:59:41;30.80;;;17.80;;
28459;SDS011;32528;45.712;9.192;2023-03-20T10:02:03;35.40;;;16.67;;
28459;SDS011;32528;45.712;9.192;2023-03-20T10:04:11;29.63;;;19.20;;
28459;SDS011;32528;45.712;9.192;2023-03-20T10:06:14;36.63;;;18.00;;
28459;SDS011;32528;45.712;9.192;2023-03-20T10:08:16;28.70;;;17.40;;
28459;SDS011;32528;45.712;9.192;2023-03-20T10:10:23;35.53;;;19.25;;
28459;SDS011;32528;45.712;9.192;2023-03-20T10:15:12;39.80;;;18.95;;
28459;SDS011;32528;45.712;9.192;2023-03-20T10:22:20;28.48;;;18.02;;
28459;SDS011;32528;45.712;9.192;2023-03-20T10:24:29;34.47;;;18.15;;
28459;SDS011;32528;45.712;9.192;2023-03-20T10:26:35;30.08;;;18.48;;
28459;SDS011;32528;45.712;9.192;2023-03-20T10:37:54;41.22;;;18.40;;
28459;SDS011;32528;45.712;9.192;2023-03-20T10:42:15;33.47;;;18.77;;
28459;SDS011;32528;45.712;9.192;2023-03-20T10:44:30;25.27;;;16.67;;
28459;SDS011;32528;45.712;9.192;2023-03-20T10:46:36;26.13;;;17.73;;
28459;SDS011;32528;45.712;9.192;2023-03-20T10:48:51;27.90;;;18.08;;
28459;SDS011;32528;45.712;9.192;2023-03-20T10:51:15;45.45;;;20.05;;
28459;SDS011;32528;45.712;9.192;2023-03-20T10:53:25;30.70;;;18.77;;
28459;SDS011;32528;45.712;9.192;2023-03-20T10:55:32;31.20;;;18.85;;
28459;SDS011;32528;45.712;9.192;2023-03-20T10:57:37;28.85;;;17.05;;
28459;SDS011;32528;45.712;9.192;2023-03-20T10:59:45;33.67;;;17.33;;
28459;SDS011;32528;45.712;9.192;2023-03-20T11:01:49;27.25;;;18.27;;
28459;SDS011;32528;45.712;9.192;2023-03-20T11:03:50;30.30;;;18.95;;
28459;SDS011;32528;45.712;9.192;2023-03-20T11:05:52;41.72;;;18.48;;
28459;SDS011;32528;45.712;9.192;2023-03-20T11:08:02;29.65;;;17.13;;
28459;SDS011;32528;45.712;9.192;2023-03-20T11:12:14;32.25;;;18.60;;
28459;SDS011;32528;45.712;9.192;2023-03-20T11:14:20;34.53;;;19.20;;
28459;SDS011;32528;45.712;9.192;2023-03-20T11:16:24;30.88;;;18.40;;
28459;SDS011;32528;45.712;9.192;2023-03-20T11:18:29;29.10;;;17.45;;
28459;SDS011;32528;45.712;9.192;2023-03-20T11:20:34;28.40;;;18.10;;
28459;SDS011;32528;45.712;9.192;2023-03-20T11:22:38;40.50;;;18.13;;
28459;SDS011;32528;45.712;9.192;2023-03-20T11:24:41;28.98;;;19.33;;
28459;SDS011;32528;45.712;9.192;2023-03-20T11:26:46;29.02;;;17.00;;
28459;SDS011;32528;45.712;9.192;2023-03-20T11:31:01;48.00;;;18.17;;
28459;SDS011;32528;45.712;9.192;2023-03-20T11:33:11;32.95;;;18.52;;
28459;SDS011;32528;45.712;9.192;2023-03-20T11:35:18;29.35;;;17.13;;
28459;SDS011;32528;45.712;9.192;2023-03-20T11:37:28;26.70;;;18.23;;
28459;SDS011;32528;45.712;9.192;2023-03-20T11:39:34;26.77;;;17.65;;
28459;SDS011;32528;45.712;9.192;2023-03-20T11:41:40;29.55;;;19.52;;
28459;SDS011;32528;45.712;9.192;2023-03-20T11:43:46;28.33;;;17.27;;
28459;SDS011;32528;45.712;9.192;2023-03-20T11:45:57;32.97;;;19.02;;
28459;SDS011;32528;45.712;9.192;2023-03-20T11:48:00;28.63;;;17.45;;
28459;SDS011;32528;45.712;9.192;2023-03-20T11:50:03;31.80;;;19.05;;
28459;SDS011;32528;45.712;9.192;2023-03-20T11:52:17;28.42;;;17.55;;
28459;SDS011;32528;45.712;9.192;2023-03-20T11:54:21;30.70;;;18.67;;
28459;SDS011;32528;45.712;9.192;2023-03-20T11:56:25;29.08;;;17.30;;
28459;SDS011;32528;45.712;9.192;2023-03-20T11:58:27;26.08;;;16.50;;
28459;SDS011;32528;45.712;9.192;2023-03-20T12:00:36;30.83;;;17.65;;
28459;SDS011;32528;45.712;9.192;2023-03-20T12:02:39;28.13;;;18.10;;
28459;SDS011;32528;45.712;9.192;2023-03-20T12:04:40;27.85;;;17.88;;
28459;SDS011;32528;45.712;9.192;2023-03-20T12:06:46;27.38;;;18.38;;
28459;SDS011;32528;45.712;9.192;2023-03-20T12:08:55;32.17;;;17.17;;
28459;SDS011;32528;45.712;9.192;2023-03-20T12:13:40;28.67;;;18.52;;
28459;SDS011;32528;45.712;9.192;2023-03-20T12:15:45;26.63;;;17.67;;
28459;SDS011;32528;45.712;9.192;2023-03-20T12:17:52;28.80;;;18.35;;
28459;SDS011;32528;45.712;9.192;2023-03-20T12:20:19;27.95;;;17.80;;
28459;SDS011;32528;45.712;9.192;2023-03-20T12:22:37;39.78;;;25.00;;
28459;SDS011;32528;45.712;9.192;2023-03-20T12:24:49;27.83;;;17.67;;
28459;SDS011;32528;45.712;9.192;2023-03-20T12:27:00;26.10;;;17.63;;
28459;SDS011;32528;45.712;9.192;2023-03-20T12:29:31;29.88;;;18.25;;
28459;SDS011;32528;45.712;9.192;2023-03-20T12:31:42;31.17;;;18.38;;
28459;SDS011;32528;45.712;9.192;2023-03-20T12:36:07;29.00;;;18.65;;
28459;SDS011;32528;45.712;9.192;2023-03-20T12:38:17;31.85;;;20.10;;
28459;SDS011;32528;45.712;9.192;2023-03-20T12:40:32;28.88;;;17.52;;
28459;SDS011;32528;45.712;9.192;2023-03-20T12:51:53;33.53;;;20.50;;
28459;SDS011;32528;45.712;9.192;2023-03-20T12:54:27;46.53;;;23.23;;
28459;SDS011;32528;45.712;9.192;2023-03-20T12:58:52;30.60;;;19.77;;
28459;SDS011;32528;45.712;9.192;2023-03-20T13:01:08;30.90;;;20.80;;
28459;SDS011;32528;45.712;9.192;2023-03-20T13:03:49;29.58;;;19.55;;
28459;SDS011;32528;45.712;9.192;2023-03-20T13:06:13;32.67;;;22.17;;
28459;SDS011;32528;45.712;9.192;2023-03-20T13:10:32;30.25;;;20.35;;
28459;SDS011;32528;45.712;9.192;2023-03-20T13:12:39;36.17;;;20.00;;
28459;SDS011;32528;45.712;9.192;2023-03-20T13:15:15;41.20;;;20.88;;
28459;SDS011;32528;45.712;9.192;2023-03-20T13:17:28;36.45;;;20.13;;
28459;SDS011;32528;45.712;9.192;2023-03-20T13:19:46;31.23;;;21.27;;
28459;SDS011;32528;45.712;9.192;2023-03-20T13:22:01;39.72;;;22.25;;
28459;SDS011;32528;45.712;9.192;2023-03-20T13:29:48;39.28;;;21.48;;
28459;SDS011;32528;45.712;9.192;2023-03-20T13:34:26;40.08;;;23.00;;
28459;SDS011;32528;45.712;9.192;2023-03-20T13:41:19;31.58;;;21.38;;
28459;SDS011;32528;45.712;9.192;2023-03-20T13:43:30;36.60;;;23.27;;
28459;SDS011;32528;45.712;9.192;2023-03-20T13:45:37;38.53;;;22.33;;
28459;SDS011;32528;45.712;9.192;2023-03-20T13:47:38;34.63;;;21.30;;
28459;SDS011;32528;45.712;9.192;2023-03-20T13:51:50;33.50;;;22.63;;
28459;SDS011;32528;45.712;9.192;2023-03-20T13:56:28;36.72;;;25.05;;
28459;SDS011;32528;45.712;9.192;2023-03-20T14:01:27;38.90;;;26.40;;
28459;SDS011;32528;45.712;9.192;2023-03-20T14:03:50;35.88;;;23.23;;
28459;SDS011;32528;45.712;9.192;2023-03-20T14:05:52;33.72;;;24.05;;
28459;SDS011;32528;45.712;9.192;2023-03-20T14:07:54;45.17;;;26.60;;
28459;SDS011;32528;45.712;9.192;2023-03-20T14:09:57;45.10;;;26.08;;
28459;SDS011;32528;45.712;9.192;2023-03-20T14:12:17;39.85;;;23.10;;
28459;SDS011;32528;45.712;9.192;2023-03-20T14:14:28;36.28;;;24.23;;
28459;SDS011;32528;45.712;9.192;2023-03-20T14:16:40;37.45;;;23.45;;